Time;durP1;ratioP1;P1;durP2;ratioP2;P2;SDS_P1;SDS_P2;PMS_P1;PMS_P2;Temp;Humidity;BMP_temperature;BMP_pressure;BME280_temperature;BME280_humidity;BME280_pressure;Samples;Min_cycle;Max_cycle;Signal;HPM_P1;HPM_P2
2022/04/29 00:00:25;;;;;;;12.67;7.30;;;;;;;-145.18;100.00;46625.22;4991568;28;20040;-70
2022/04/29 00:02:51;;;;;;;14.57;7.07;;;;;;;-145.18;100.00;46629.13;4991007;28;20066;-70
2022/04/29 00:05:18;;;;;;;18.07;7.03;;;;;;;-145.18;100.00;46633.06;4991369;28;20042;-71
2022/04/29 00:07:43;;;;;;;12.23;6.70;;;;;;;-145.18;100.00;46588.13;4990933;28;20299;-70
2022/04/29 00:10:13;;;;;;;12.73;6.77;;;;;;;-145.18;100.00;46582.25;4991166;28;20272;-70
2022/04/29 00:12:43;;;;;;;19.40;7.77;;;;;;;-145.18;100.00;46627.19;4990973;28;20048;-70
2022/04/29 00:15:11;;;;;;;13.33;6.33;;;;;;;-145.18;100.00;46629.13;4974375;28;20271;-70
2022/04/29 00:17:37;;;;;;;26.17;7.33;;;;;;;-145.18;100.00;46588.13;4990587;28;20287;-70
2022/04/29 00:20:03;;;;;;;14.87;6.83;;;;;;;-145.18;100.00;46631.09;4991010;28;20760;-70
2022/04/29 00:22:29;;;;;;;17.83;6.80;;;;;;;-145.18;100.00;46586.16;4990701;28;20046;-70
2022/04/29 00:24:54;;;;;;;12.73;6.40;;;;;;;-145.18;100.00;46627.19;4990957;28;20272;-70
2022/04/29 00:27:19;;;;;;;13.43;7.30;;;;;;;-145.18;100.00;46633.06;4990731;28;20046;-70
2022/04/29 00:29:45;;;;;;;12.60;6.00;;;;;;;-145.18;100.00;46633.06;4991114;28;20034;-70
2022/04/29 00:32:10;;;;;;;15.50;6.63;;;;;;;-145.18;100.00;46590.06;4990139;28;20034;-70
2022/04/29 00:34:35;;;;;;;12.07;6.57;;;;;;;-145.18;100.00;46635.00;4991016;28;20045;-70
2022/04/29 00:37:01;;;;;;;14.13;6.97;;;;;;;-145.18;100.00;46631.09;4972681;28;20755;-70
2022/04/29 00:39:26;;;;;;;13.80;6.93;;;;;;;-145.18;100.00;46627.19;4991161;28;20038;-70
2022/04/29 00:41:52;;;;;;;18.17;6.80;;;;;;;-145.18;100.00;46631.09;4990270;28;20121;-70
2022/04/29 00:44:17;;;;;;;19.20;6.90;;;;;;;-145.18;100.00;46621.31;4990633;28;20566;-70
2022/04/29 00:46:44;;;;;;;12.73;6.53;;;;;;;-145.18;100.00;46625.22;4990658;28;20038;-70
2022/04/29 00:49:12;;;;;;;15.80;6.63;;;;;;;-145.18;100.00;46625.22;4990485;28;20038;-70
2022/04/29 00:51:39;;;;;;;14.47;6.90;;;;;;;-145.18;100.00;46621.31;4990255;28;20285;-71
2022/04/29 00:54:08;;;;;;;17.80;7.07;;;;;;;-145.18;100.00;46627.19;4990460;28;20268;-71
2022/04/29 00:56:42;;;;;;;15.50;7.53;;;;;;;-145.18;100.00;46621.31;4990083;28;20763;-70
2022/04/29 00:59:15;;;;;;;19.80;7.00;;;;;;;-145.18;100.00;46621.31;4990736;28;20717;-71
2022/04/29 01:01:44;;;;;;;16.40;7.40;;;;;;;-145.18;100.00;46625.22;4990081;28;20411;-70
2022/04/29 01:04:14;;;;;;;14.83;6.93;;;;;;;-145.18;100.00;46619.38;4989893;28;20299;-70
2022/04/29 01:06:39;;;;;;;19.17;7.43;;;;;;;-145.18;100.00;46627.19;4989627;28;20312;-70
2022/04/29 01:09:04;;;;;;;17.83;6.93;;;;;;;-145.18;100.00;46627.19;4989879;28;20332;-70
2022/04/29 01:11:30;;;;;;;11.47;6.93;;;;;;;-145.18;100.00;46617.41;4989923;28;20462;-70
2022/04/29 01:13:55;;;;;;;16.33;7.17;;;;;;;-145.18;100.00;46576.41;4989812;28;20030;-70
2022/04/29 01:16:21;;;;;;;14.00;7.70;;;;;;;-145.18;100.00;46623.28;4989738;28;20035;-71
2022/04/29 01:18:49;;;;;;;11.30;6.13;;;;;;;-145.18;100.00;46629.13;4990078;28;20498;-70
2022/04/29 01:21:15;;;;;;;11.73;6.10;;;;;;;-145.18;100.00;46627.19;4989460;28;20170;-70
2022/04/29 01:23:41;;;;;;;16.77;6.43;;;;;;;-145.18;100.00;46625.22;4990180;28;20309;-70
2022/04/29 01:26:07;;;;;;;12.13;7.07;;;;;;;-145.18;100.00;46617.41;4972374;28;20498;-70
2022/04/29 01:28:34;;;;;;;16.67;6.60;;;;;;;-145.18;100.00;46623.28;4990228;28;20532;-70
2022/04/29 01:31:00;;;;;;;15.30;6.97;;;;;;;-145.18;100.00;46619.38;4989849;28;20072;-71
2022/04/29 01:33:29;;;;;;;19.07;7.23;;;;;;;-145.18;100.00;46621.31;4989525;28;20268;-70
2022/04/29 01:35:55;;;;;;;24.47;7.63;;;;;;;-145.18;100.00;46621.31;4989833;28;20276;-71
2022/04/29 01:38:21;;;;;;;12.63;7.47;;;;;;;-145.18;100.00;46574.44;4989409;28;20267;-71
2022/04/29 01:40:46;;;;;;;22.17;8.37;;;;;;;-145.18;100.00;46623.28;4990285;28;20069;-70
2022/04/29 01:43:12;;;;;;;14.03;7.60;;;;;;;-145.18;100.00;46619.38;4989255;28;20375;-70
2022/04/29 01:45:37;;;;;;;13.50;7.20;;;;;;;-145.18;100.00;46629.13;4990098;28;20022;-70
2022/04/29 01:48:03;;;;;;;25.13;7.97;;;;;;;-145.18;100.00;46621.31;4989647;28;20065;-70
2022/04/29 01:50:28;;;;;;;18.07;7.90;;;;;;;-145.18;100.00;46621.31;4990306;28;20097;-70
2022/04/29 01:52:54;;;;;;;16.73;8.13;;;;;;;-145.18;100.00;46623.28;4989649;28;20042;-71
2022/04/29 01:55:19;;;;;;;16.73;8.57;;;;;;;-145.18;100.00;46621.31;4990131;28;20041;-70
2022/04/29 01:57:49;;;;;;;17.87;7.60;;;;;;;-145.18;100.00;46621.31;4972182;28;20522;-71
2022/04/29 02:00:15;;;;;;;14.07;7.17;;;;;;;-145.18;100.00;46613.50;4990496;28;20439;-70
2022/04/29 02:02:41;;;;;;;13.77;7.27;;;;;;;-145.18;100.00;46621.31;5145513;23;20329;-73
2022/04/29 02:05:07;;;;;;;24.30;8.63;;;;;;;-145.18;100.00;46621.31;4963772;28;20777;-70
2022/04/29 02:07:32;;;;;;;17.97;7.53;;;;;;;-145.18;100.00;46621.31;4954750;28;20043;-72
2022/04/29 02:09:58;;;;;;;15.57;8.40;;;;;;;-145.18;100.00;46625.22;4954075;28;20070;-72
2022/04/29 02:12:23;;;;;;;16.33;8.77;;;;;;;-145.18;100.00;46623.28;4954396;28;20126;-72
2022/04/29 02:14:48;;;;;;;20.10;7.90;;;;;;;-145.18;100.00;46621.31;4954833;28;20046;-70
2022/04/29 02:17:14;;;;;;;14.63;8.90;;;;;;;-145.18;100.00;46621.31;4954197;29;20103;-71
2022/04/29 02:19:40;;;;;;;15.37;8.13;;;;;;;-145.18;100.00;46621.31;4954839;28;20054;-72
2022/04/29 02:22:08;;;;;;;20.40;8.77;;;;;;;-145.18;100.00;46621.31;4954397;28;20127;-72
2022/04/29 02:24:33;;;;;;;17.13;7.83;;;;;;;-145.18;100.00;46617.41;4954468;28;20039;-72
2022/04/29 02:27:03;;;;;;;17.47;8.40;;;;;;;-145.18;100.00;46621.31;4953730;29;20325;-72
2022/04/29 02:29:28;;;;;;;19.40;8.60;;;;;;;-145.18;100.00;46621.31;4963443;28;20039;-70
2022/04/29 02:31:55;;;;;;;19.53;8.57;;;;;;;-145.18;100.00;46617.41;4973242;28;20276;-73
2022/04/29 02:34:20;;;;;;;17.07;8.73;;;;;;;-145.18;100.00;46613.50;4973865;28;20400;-72
2022/04/29 02:36:47;;;;;;;19.70;8.93;;;;;;;-145.18;100.00;46615.47;4973271;28;20268;-73
2022/04/29 02:39:12;;;;;;;19.00;8.70;;;;;;;-145.18;100.00;46621.31;4973634;28;20039;-70
2022/04/29 02:41:38;;;;;;;18.47;8.33;;;;;;;-145.18;100.00;46617.41;4973193;28;20280;-72
2022/04/29 02:44:04;;;;;;;21.83;8.83;;;;;;;-145.18;100.00;46613.50;4964868;28;20035;-72
2022/04/29 02:46:29;;;;;;;22.73;8.57;;;;;;;-145.18;100.00;46621.31;4954309;28;20634;-72
2022/04/29 02:48:54;;;;;;;17.63;8.77;;;;;;;-145.18;100.00;46625.22;4953666;28;20066;-73
2022/04/29 02:51:20;;;;;;;14.13;7.83;;;;;;;-145.18;100.00;46621.31;4954529;28;20126;-72
2022/04/29 02:53:46;;;;;;;18.00;8.47;;;;;;;-145.18;100.00;46617.41;4954003;28;20028;-72
2022/04/29 02:56:11;;;;;;;14.90;9.13;;;;;;;-145.18;100.00;46617.41;4952392;29;20035;-72
2022/04/29 02:58:36;;;;;;;19.03;9.00;;;;;;;-145.18;100.00;46615.47;4953560;29;20050;-72
2022/04/29 03:01:02;;;;;;;14.50;8.73;;;;;;;-145.18;100.00;46619.38;4953860;29;20113;-72
2022/04/29 03:03:28;;;;;;;19.77;8.97;;;;;;;-145.18;100.00;46621.31;4965605;28;20051;-72
2022/04/29 03:05:53;;;;;;;15.93;9.00;;;;;;;-145.18;100.00;46613.50;4973222;28;20300;-72
2022/04/29 03:08:19;;;;;;;21.17;10.13;;;;;;;-145.18;100.00;46613.50;4972515;28;20045;-72
2022/04/29 03:10:46;;;;;;;20.60;10.23;;;;;;;-145.18;100.00;46613.50;4973110;28;20158;-73
2022/04/29 03:13:12;;;;;;;22.23;10.20;;;;;;;-145.18;100.00;46615.47;4971734;28;20039;-72
2022/04/29 03:15:37;;;;;;;20.70;10.10;;;;;;;-145.18;100.00;46613.50;4973207;28;20288;-73
2022/04/29 03:18:18;;;;;;;19.53;9.50;;;;;;;-145.18;100.00;46568.59;4972424;28;20058;-70
2022/04/29 03:20:45;;;;;;;22.90;10.17;;;;;;;-145.18;100.00;46615.47;4973037;28;20038;-72
2022/04/29 03:23:11;;;;;;;21.37;9.63;;;;;;;-145.18;100.00;46617.41;4972351;28;20265;-72
2022/04/29 03:25:37;;;;;;;21.77;10.17;;;;;;;-145.18;100.00;46570.53;4971908;28;20351;-73
2022/04/29 03:28:05;;;;;;;20.30;9.57;;;;;;;-145.18;100.00;46613.50;4972299;28;20297;-73
2022/04/29 03:30:31;;;;;;;16.23;9.37;;;;;;;-145.18;100.00;46617.41;4972639;28;20059;-73
2022/04/29 03:32:58;;;;;;;20.20;9.80;;;;;;;-145.18;100.00;46617.41;4971955;28;20269;-73
2022/04/29 03:35:25;;;;;;;23.97;10.93;;;;;;;-145.18;100.00;46617.41;4973072;28;20514;-73
2022/04/29 03:37:52;;;;;;;18.77;9.47;;;;;;;-145.18;100.00;46615.47;4972165;28;20309;-73
2022/04/29 03:40:22;;;;;;;25.33;10.57;;;;;;;-145.18;100.00;46613.50;4972906;28;20289;-73
2022/04/29 03:42:52;;;;;;;18.00;8.57;;;;;;;-145.18;100.00;46617.41;4971914;28;20280;-73
2022/04/29 03:45:20;;;;;;;18.87;9.57;;;;;;;-145.18;100.00;46613.50;4972703;28;20277;-73
2022/04/29 03:47:46;;;;;;;22.97;10.07;;;;;;;-145.18;100.00;46611.56;4972176;28;20297;-73
2022/04/29 03:50:12;;;;;;;20.50;9.70;;;;;;;-145.18;100.00;46568.59;4972556;28;20275;-74
2022/04/29 03:52:49;;;;;;;22.80;9.93;;;;;;;-145.18;100.00;46611.56;4971059;28;20475;-73
2022/04/29 03:55:15;;;;;;;18.47;10.10;;;;;;;-145.18;100.00;46617.41;4975151;28;20365;-71
2022/04/29 03:57:41;;;;;;;22.30;11.07;;;;;;;-145.18;100.00;46613.50;4989585;28;20366;-73
2022/04/29 04:00:08;;;;;;;23.63;10.47;;;;;;;-145.18;100.00;46621.31;4979488;28;20284;-73
2022/04/29 04:02:34;;;;;;;23.30;10.27;;;;;;;-145.18;100.00;46617.41;4970876;28;20049;-73
2022/04/29 04:04:59;;;;;;;23.73;10.37;;;;;;;-145.18;100.00;46615.47;4967112;28;20641;-72
2022/04/29 04:07:25;;;;;;;16.60;9.47;;;;;;;-145.18;100.00;46613.50;4990291;28;20482;-72
2022/04/29 04:09:50;;;;;;;19.87;9.73;;;;;;;-145.18;100.00;46611.56;4990396;28;20449;-70
2022/04/29 04:12:16;;;;;;;21.57;10.57;;;;;;;-145.18;100.00;46619.38;4990101;28;20092;-72
2022/04/29 04:14:42;;;;;;;21.30;9.47;;;;;;;-145.18;100.00;46621.31;4982915;28;20637;-69
2022/04/29 04:17:07;;;;;;;21.00;10.97;;;;;;;-145.18;100.00;46619.38;4970701;28;20304;-70
2022/04/29 04:19:34;;;;;;;18.53;10.20;;;;;;;-145.18;100.00;46621.31;4964990;28;20030;-72
2022/04/29 04:22:00;;;;;;;20.80;10.03;;;;;;;-145.18;100.00;46617.41;4989790;28;20081;-73
2022/04/29 04:24:25;;;;;;;23.87;10.57;;;;;;;-145.18;100.00;46613.50;4989229;28;20634;-72
2022/04/29 04:26:50;;;;;;;19.97;10.30;;;;;;;-145.18;100.00;46611.56;4989933;28;20054;-72
2022/04/29 04:29:16;;;;;;;19.47;10.57;;;;;;;-145.18;100.00;46617.41;4979011;28;20043;-72
2022/04/29 04:31:41;;;;;;;25.27;10.50;;;;;;;-145.18;100.00;46613.50;4977313;28;20042;-72
2022/04/29 04:36:53;;;;;;;17.90;9.97;;;;;;;-145.18;100.00;46623.28;4989433;28;20092;-72
2022/04/29 04:39:20;;;;;;;21.80;10.43;;;;;;;-145.18;100.00;46619.38;4970578;28;20261;-72
2022/04/29 04:41:45;;;;;;;23.17;10.60;;;;;;;-145.18;100.00;46625.22;4971144;28;20265;-72
2022/04/29 04:44:10;;;;;;;21.37;10.70;;;;;;;-145.18;100.00;46621.31;4974540;28;20276;-72
2022/04/29 04:46:36;;;;;;;27.40;10.77;;;;;;;-145.18;100.00;46617.41;4991058;28;20042;-72
2022/04/29 04:49:02;;;;;;;20.73;10.40;;;;;;;-145.18;100.00;46613.50;4989964;28;20054;-69
2022/04/29 04:51:27;;;;;;;20.63;10.23;;;;;;;-145.18;100.00;46615.47;4973345;28;20447;-70
2022/04/29 04:53:52;;;;;;;24.50;10.97;;;;;;;-145.18;100.00;46570.53;4990449;28;20030;-70
2022/04/29 04:56:18;;;;;;;24.47;10.73;;;;;;;-145.18;100.00;46574.44;4990527;28;20446;-70
2022/04/29 04:58:43;;;;;;;22.37;10.23;;;;;;;-145.18;100.00;46570.53;4990051;28;20061;-70
2022/04/29 05:01:08;;;;;;;17.40;10.37;;;;;;;-145.18;100.00;46568.59;4990408;28;20042;-69
2022/04/29 05:03:34;;;;;;;20.03;10.50;;;;;;;-145.18;100.00;46574.44;4988819;28;20053;-70
2022/04/29 05:05:59;;;;;;;25.90;10.57;;;;;;;-145.18;100.00;46568.59;4989866;28;20509;-70
2022/04/29 05:08:24;;;;;;;25.03;11.17;;;;;;;-145.18;100.00;46562.72;4990185;28;20034;-72
2022/04/29 05:10:50;;;;;;;21.90;11.50;;;;;;;-145.18;100.00;46566.63;4989316;28;20038;-72
2022/04/29 05:13:15;;;;;;;20.13;10.87;;;;;;;-145.18;100.00;46568.59;4987376;28;20053;-73
2022/04/29 05:15:42;;;;;;;18.93;10.37;;;;;;;-145.18;100.00;46566.63;4970802;28;20030;-73
2022/04/29 05:18:08;;;;;;;21.60;10.40;;;;;;;-145.18;100.00;46572.50;4970519;28;20042;-74
2022/04/29 05:20:34;;;;;;;19.27;10.13;;;;;;;-145.18;100.00;46568.59;4971199;28;20633;-72
2022/04/29 05:22:59;;;;;;;17.53;10.67;;;;;;;-145.18;100.00;46570.53;4970471;28;20058;-73
2022/04/29 05:25:25;;;;;;;23.13;10.63;;;;;;;-145.18;100.00;46564.69;4970971;28;20062;-73
2022/04/29 05:27:50;;;;;;;23.30;11.10;;;;;;;-145.18;100.00;46562.72;4970348;28;20381;-73
2022/04/29 05:30:15;;;;;;;20.37;10.83;;;;;;;-145.18;100.00;46566.63;4970779;28;20034;-74
2022/04/29 05:32:41;;;;;;;24.87;10.87;;;;;;;-145.18;100.00;46560.78;4970602;28;20363;-73
2022/04/29 05:35:08;;;;;;;21.53;10.53;;;;;;;-145.18;100.00;46562.72;4971230;28;20034;-74
2022/04/29 05:37:34;;;;;;;23.30;11.13;;;;;;;-145.18;100.00;46562.72;4974283;28;20031;-73
2022/04/29 05:42:44;;;;;;;21.87;10.43;;;;;;;-145.18;100.00;46554.91;4974557;28;20101;-73
2022/04/29 05:45:09;;;;;;;23.07;11.03;;;;;;;-145.18;100.00;46560.78;4974241;28;20264;-73
2022/04/29 05:47:35;;;;;;;23.87;10.60;;;;;;;-145.18;100.00;46549.06;4974238;28;20036;-73
2022/04/29 05:50:00;;;;;;;23.57;11.50;;;;;;;-145.18;100.00;46547.09;4974238;28;20062;-73
2022/04/29 05:52:26;;;;;;;26.43;11.10;;;;;;;-145.18;100.00;46547.09;4962275;28;20055;-73
2022/04/29 05:54:51;;;;;;;19.10;10.40;;;;;;;-145.18;100.00;46551.00;4993213;28;20034;-71
2022/04/29 05:57:17;;;;;;;29.50;11.63;;;;;;;-145.18;100.00;46551.00;4993505;28;20034;-71
2022/04/29 05:59:42;;;;;;;27.27;11.30;;;;;;;-145.18;100.00;46562.72;4992469;28;20053;-73
2022/04/29 06:02:08;;;;;;;23.63;10.87;;;;;;;-145.18;100.00;46558.81;4993072;28;20062;-73
2022/04/29 06:04:34;;;;;;;24.43;11.30;;;;;;;-145.18;100.00;46558.81;4993446;28;20037;-73
2022/04/29 06:06:59;;;;;;;23.83;10.30;;;;;;;-145.18;100.00;46558.81;4993027;28;20275;-73
2022/04/29 06:09:25;;;;;;;21.17;11.10;;;;;;;-145.18;100.00;46566.63;4992142;28;20125;-74
2022/04/29 06:11:51;;;;;;;30.03;10.23;;;;;;;-145.18;100.00;46564.69;4993433;28;20035;-74
2022/04/29 06:14:16;;;;;;;23.67;10.93;;;;;;;-145.18;100.00;46572.50;4993162;28;20544;-73
2022/04/29 06:16:43;;;;;;;26.77;10.70;;;;;;;-145.18;100.00;46572.50;4993313;28;20053;-73
2022/04/29 06:19:09;;;;;;;20.27;10.17;;;;;;;-145.18;100.00;46562.72;4992375;28;20089;-74
2022/04/29 06:21:36;;;;;;;26.00;10.50;;;;;;;-145.18;100.00;46570.53;4993393;28;20633;-74
2022/04/29 06:24:01;;;;;;;27.47;9.90;;;;;;;-145.18;100.00;46566.63;4992770;28;20069;-74
2022/04/29 06:26:26;;;;;;;18.33;10.90;;;;;;;-145.18;100.00;46582.25;4993412;28;20304;-71
2022/04/29 06:28:52;;;;;;;22.80;10.13;;;;;;;-145.18;100.00;46576.41;4992513;28;20038;-71
2022/04/29 06:31:17;;;;;;;20.33;10.03;;;;;;;-145.18;100.00;46582.25;4993448;28;20030;-71
2022/04/29 06:33:43;;;;;;;20.13;10.83;;;;;;;-145.18;100.00;46586.16;4992882;28;20030;-71
2022/04/29 06:36:09;;;;;;;28.43;9.90;;;;;;;-145.18;100.00;46597.88;4992416;28;20506;-71
2022/04/29 06:38:35;;;;;;;20.53;10.20;;;;;;;-145.18;100.00;46597.88;4992535;28;20037;-71
2022/04/29 06:41:00;;;;;;;32.57;10.60;;;;;;;-145.18;100.00;46586.16;4993375;28;20287;-71
2022/04/29 06:43:28;;;;;;;21.23;9.93;;;;;;;-145.18;100.00;46593.97;4990287;28;20121;-71
2022/04/29 06:45:53;;;;;;;22.93;9.83;;;;;;;-145.18;100.00;46605.69;4973067;28;20126;-71
2022/04/29 06:48:19;;;;;;;24.47;10.03;;;;;;;-145.18;100.00;46619.38;4974236;28;20371;-71
2022/04/29 06:50:44;;;;;;;18.47;10.90;;;;;;;-145.18;100.00;46607.66;4992719;28;20034;-71
2022/04/29 06:53:09;;;;;;;24.37;10.43;;;;;;;-145.18;100.00;46593.97;4976511;28;20086;-71
2022/04/29 06:55:39;;;;;;;18.47;9.47;;;;;;;-145.18;100.00;46590.06;4973690;28;20069;-74
2022/04/29 06:58:06;;;;;;;25.07;9.80;;;;;;;-145.18;100.00;46592.03;4988061;28;20489;-74
2022/04/29 07:00:31;;;;;;;20.67;10.90;;;;;;;-145.18;100.00;46611.56;4992893;28;20267;-71
2022/04/29 07:02:57;;;;;;;19.30;9.13;;;;;;;-145.18;100.00;46605.69;4978082;28;20944;-71
2022/04/29 07:05:26;;;;;;;19.77;9.93;;;;;;;-145.18;100.00;46607.66;4972872;28;20038;-71
2022/04/29 07:07:51;;;;;;;20.10;9.17;;;;;;;-145.18;100.00;46607.66;4973012;28;20439;-74
2022/04/29 07:10:17;;;;;;;17.67;8.60;;;;;;;-145.18;100.00;46615.47;4986050;28;20280;-74
2022/04/29 07:12:44;;;;;;;18.37;9.53;;;;;;;-145.18;100.00;46609.59;4991503;28;20034;-71
2022/04/29 07:15:14;;;;;;;23.03;10.20;;;;;;;-145.18;100.00;46607.66;4992459;28;20030;-72
2022/04/29 07:17:43;;;;;;;17.90;9.03;;;;;;;-145.18;100.00;46625.22;4992495;28;20267;-72
2022/04/29 07:20:09;;;;;;;18.70;9.80;;;;;;;-145.18;100.00;46609.59;4973950;28;20811;-72
2022/04/29 07:22:39;;;;;;;26.90;9.67;;;;;;;-145.18;100.00;46613.50;4976315;28;20269;-72
2022/04/29 07:25:06;;;;;;;18.60;10.10;;;;;;;-145.18;100.00;46623.28;4972503;28;20265;-72
2022/04/29 07:27:32;;;;;;;25.50;8.87;;;;;;;-145.18;100.00;46611.56;4972562;28;20281;-72
2022/04/29 07:29:59;;;;;;;21.33;8.97;;;;;;;-145.18;100.00;46619.38;4972160;28;20995;-72
2022/04/29 07:32:25;;;;;;;21.80;9.23;;;;;;;-145.18;100.00;46619.38;4971631;28;20291;-72
2022/04/29 07:43:11;;;;;;;17.97;9.27;;;;;;;-145.18;100.00;46631.09;4972409;28;20759;-72
2022/04/29 07:45:42;;;;;;;18.33;8.63;;;;;;;-145.18;100.00;46625.22;4954816;28;20265;-72
2022/04/29 07:48:08;;;;;;;21.00;8.30;;;;;;;-145.18;100.00;46633.06;4988495;28;20310;-72
2022/04/29 07:50:35;;;;;;;19.60;9.23;;;;;;;-145.18;100.00;46636.94;4991718;28;20268;-72
2022/04/29 07:53:01;;;;;;;23.00;10.03;;;;;;;-145.18;100.00;46633.06;4991137;28;20277;-72
2022/04/29 07:55:28;;;;;;;20.37;9.00;;;;;;;-145.18;100.00;46635.00;4991000;28;20391;-72
2022/04/29 07:57:53;;;;;;;16.57;8.87;;;;;;;-145.18;100.00;46687.75;4990341;28;20311;-72
2022/04/29 08:00:19;;;;;;;25.73;9.53;;;;;;;-145.18;100.00;46683.84;4991253;28;20359;-72
2022/04/29 08:02:45;;;;;;;18.93;8.23;;;;;;;-145.18;100.00;46693.59;4991038;28;20133;-72
2022/04/29 08:05:11;;;;;;;19.37;8.93;;;;;;;-145.18;100.00;46677.97;4990872;28;20419;-72
2022/04/29 08:07:37;;;;;;;17.90;8.57;;;;;;;-145.18;100.00;46693.59;4973486;28;20661;-72
2022/04/29 08:10:03;;;;;;;20.93;8.60;;;;;;;-145.18;100.00;46664.31;4990378;28;20309;-72
2022/04/29 08:12:29;;;;;;;15.53;7.93;;;;;;;-145.18;100.00;46695.56;4991223;28;20275;-72
2022/04/29 08:14:55;;;;;;;20.80;9.10;;;;;;;-145.18;100.00;46664.31;4989422;28;20273;-72
2022/04/29 08:17:21;;;;;;;16.27;8.53;;;;;;;-145.18;100.00;46650.63;4991386;28;20045;-72
2022/04/29 08:19:48;;;;;;;29.40;9.70;;;;;;;-145.18;100.00;46629.13;4989963;28;20988;-72
2022/04/29 08:22:17;;;;;;;26.37;9.03;;;;;;;-145.18;100.00;46640.88;4990685;28;20026;-72
2022/04/29 08:24:43;;;;;;;19.53;8.17;;;;;;;-145.18;100.00;46644.78;4990768;28;20274;-72
2022/04/29 08:27:10;;;;;;;18.40;9.20;;;;;;;-145.18;100.00;46635.00;4990559;28;20276;-72
2022/04/29 08:29:36;;;;;;;21.80;9.20;;;;;;;-145.18;100.00;46650.63;4990580;28;20506;-72
2022/04/29 08:32:05;;;;;;;19.27;8.67;;;;;;;-145.18;100.00;46664.31;4982054;28;20269;-72
2022/04/29 08:34:31;;;;;;;16.10;8.23;;;;;;;-145.18;100.00;46687.75;4970885;28;20045;-72
2022/04/29 08:36:57;;;;;;;23.00;8.03;;;;;;;-145.18;100.00;46689.69;4984283;28;20280;-73
2022/04/29 08:39:22;;;;;;;17.20;8.20;;;;;;;-145.18;100.00;46683.84;4990496;28;20275;-72
2022/04/29 08:41:50;;;;;;;18.23;8.03;;;;;;;-145.18;100.00;46681.88;4990841;28;20521;-72
2022/04/29 08:44:16;;;;;;;21.27;9.70;;;;;;;-145.18;100.00;46683.84;4989954;28;20479;-72
2022/04/29 08:46:43;;;;;;;22.80;8.20;;;;;;;-145.18;100.00;46709.22;4990386;28;20868;-72
2022/04/29 08:49:10;;;;;;;18.90;8.00;;;;;;;-145.18;100.00;46687.75;4989878;28;20291;-72
2022/04/29 08:51:38;;;;;;;14.23;7.50;;;;;;;-145.18;100.00;46707.28;4990097;28;20256;-72
2022/04/29 08:54:04;;;;;;;18.57;7.33;;;;;;;-145.18;100.00;46677.97;4990103;28;20272;-72
2022/04/29 08:59:18;;;;;;;16.97;7.67;;;;;;;-145.18;100.00;46685.78;4990177;28;20116;-72
2022/04/29 09:01:44;;;;;;;12.80;7.17;;;;;;;-145.18;100.00;46719.00;4990517;28;20328;-72
2022/04/29 09:04:09;;;;;;;18.50;8.27;;;;;;;-145.18;100.00;46689.69;4990121;28;20148;-72
2022/04/29 09:06:46;;;;;;;14.17;7.17;;;;;;;-145.18;100.00;46719.00;4990656;28;20483;-72
2022/04/29 09:09:11;;;;;;;17.53;6.70;;;;;;;-145.18;100.00;46701.41;4989496;28;20590;-72
2022/04/29 09:11:37;;;;;;;11.00;6.53;;;;;;;-145.18;100.00;46709.22;4982897;28;20307;-72
2022/04/29 09:14:25;;;;;;;16.00;7.30;;;;;;;-145.18;100.00;46797.13;4984684;28;20073;-72
2022/04/29 09:16:51;;;;;;;19.33;7.80;;;;;;;-145.18;100.00;46783.47;4990409;28;20077;-72
2022/04/29 09:19:31;;;;;;;16.10;6.80;;;;;;;-145.18;100.00;46914.34;4971971;28;20835;-72
2022/04/29 09:22:07;;;;;;;12.93;6.20;;;;;;;-145.18;100.00;47037.41;4989942;28;20291;-72
2022/04/29 09:24:34;;;;;;;11.33;6.50;;;;;;;-145.18;100.00;47316.78;4990067;28;20268;-72
2022/04/29 09:27:00;;;;;;;14.70;6.90;;;;;;;-145.18;100.00;47185.88;4990101;28;20296;-72
2022/04/29 09:29:28;;;;;;;18.03;7.23;;;;;;;-145.18;100.00;47297.22;4989702;28;20366;-72
2022/04/29 09:32:01;;;;;;;17.07;6.33;;;;;;;-145.18;100.00;46924.09;4990197;28;20268;-72
2022/04/29 09:34:50;;;;;;;15.50;6.87;;;;;;;-145.18;100.00;47221.03;4989544;28;20275;-72
2022/04/29 09:37:21;;;;;;;14.30;5.93;;;;;;;-145.18;100.00;47262.06;4970697;28;20351;-72
2022/04/29 09:40:15;;;;;;;14.30;6.37;;;;;;;-145.18;100.00;47398.81;4970151;28;20271;-72
2022/04/29 09:42:43;;;;;;;16.37;6.73;;;;;;;-145.18;100.00;47383.19;4950031;28;20280;-72
2022/04/29 09:45:20;;;;;;;20.33;7.30;;;;;;;-145.18;100.00;47355.84;4969617;28;20283;-72
2022/04/29 09:47:52;;;;;;;16.53;5.77;;;;;;;-145.18;100.00;47406.63;4984983;28;20306;-72
2022/04/29 09:50:18;;;;;;;17.50;6.27;;;;;;;-145.18;100.00;47387.09;4989928;28;20764;-72
2022/04/29 09:52:45;;;;;;;17.00;6.70;;;;;;;-145.18;100.00;47381.25;4990316;28;20373;-72
2022/04/29 09:55:13;;;;;;;13.80;5.80;;;;;;;-145.18;100.00;47357.78;4989544;28;20042;-73
2022/04/29 09:57:59;;;;;;;12.03;6.43;;;;;;;-145.18;100.00;46986.63;4989921;28;20354;-72
2022/04/29 10:00:25;;;;;;;10.07;5.83;;;;;;;-145.18;100.00;47156.56;4989598;28;20609;-72
2022/04/29 10:02:51;;;;;;;17.93;7.33;;;;;;;-145.18;100.00;47101.88;4990003;28;20085;-72
2022/04/29 10:05:17;;;;;;;16.57;7.13;;;;;;;-145.18;100.00;47213.22;4972269;28;20309;-72
2022/04/29 10:07:44;;;;;;;21.50;7.47;;;;;;;-145.18;100.00;47158.53;4989822;28;20039;-72
2022/04/29 10:10:10;;;;;;;13.50;7.37;;;;;;;-145.18;100.00;47355.84;4989081;28;20093;-72
2022/04/29 10:12:36;;;;;;;12.53;6.93;;;;;;;-145.18;100.00;47318.72;4989975;28;20264;-72
2022/04/29 10:15:09;;;;;;;17.00;7.13;;;;;;;-145.18;100.00;47338.25;4989071;28;20299;-72
2022/04/29 10:23:12;;;;;;;11.70;7.13;;;;;;;-145.18;100.00;47340.22;4993622;28;20322;-72
2022/04/29 10:25:45;;;;;;;19.70;7.00;;;;;;;-145.18;100.00;47357.78;4992755;28;20264;-73
2022/04/29 10:28:16;;;;;;;17.33;7.17;;;;;;;-145.18;100.00;47346.06;4992664;28;20283;-72
2022/04/29 10:30:42;;;;;;;14.00;6.30;;;;;;;-145.18;100.00;47332.41;4992999;28;20260;-73
2022/04/29 10:33:16;;;;;;;21.67;6.77;;;;;;;-145.18;100.00;47349.97;4975532;28;20882;-73
2022/04/29 10:35:53;;;;;;;18.00;8.60;;;;;;;-145.18;100.00;47365.63;4991672;28;20173;-73
2022/04/29 10:38:24;;;;;;;14.83;6.33;;;;;;;-145.18;100.00;47289.41;4992846;28;20281;-73
2022/04/29 10:41:12;;;;;;;9.70;6.40;;;;;;;-145.18;100.00;47293.31;4992736;28;20267;-73
2022/04/29 10:43:49;;;;;;;15.90;6.40;;;;;;;-145.18;100.00;47230.81;4992292;28;20613;-73
2022/04/29 10:46:17;;;;;;;16.30;6.00;;;;;;;-145.18;100.00;47264.03;4992700;28;20355;-73
2022/04/29 10:48:43;;;;;;;13.33;5.60;;;;;;;-145.18;100.00;47344.13;4974988;28;20295;-73
2022/04/29 10:51:08;;;;;;;11.93;6.00;;;;;;;-145.18;100.00;47332.41;4988908;28;20031;-73
2022/04/29 10:53:39;;;;;;;16.10;5.80;;;;;;;-145.18;100.00;47318.72;4973151;28;20435;-73
2022/04/29 10:56:32;;;;;;;12.77;6.33;;;;;;;-145.18;100.00;47326.53;4980120;28;20027;-73
2022/04/29 10:59:03;;;;;;;16.67;6.20;;;;;;;-145.18;100.00;47293.31;4970119;28;20489;-73
2022/04/29 11:01:33;;;;;;;19.23;6.10;;;;;;;-145.18;100.00;47271.84;4971195;28;20041;-73
2022/04/29 11:03:59;;;;;;;17.27;6.77;;;;;;;-145.18;100.00;47283.56;4970437;28;20070;-73
2022/04/29 11:06:40;;;;;;;16.20;5.53;;;;;;;-145.18;100.00;47295.28;4972522;28;20429;-73
2022/04/29 11:09:30;;;;;;;19.33;7.50;;;;;;;-145.18;100.00;47297.22;4972047;28;20027;-73
2022/04/29 11:11:57;;;;;;;18.47;6.70;;;;;;;-145.18;100.00;47285.50;4972792;28;20023;-73
2022/04/29 11:14:23;;;;;;;22.63;6.40;;;;;;;-145.18;100.00;47305.06;4971576;28;20395;-73
2022/04/29 11:17:07;;;;;;;18.60;6.97;;;;;;;-145.18;100.00;47340.22;4972444;28;20030;-73
2022/04/29 11:19:47;;;;;;;16.87;6.20;;;;;;;-145.18;100.00;47305.06;4972131;28;20034;-73
2022/04/29 11:25:04;;;;;;;15.80;6.60;;;;;;;-145.18;100.00;47252.31;4972370;28;20125;-73